sensor_id;sensor_type;location;lat;lon;timestamp;P1;durP1;ratioP1;P2;durP2;ratioP2
14019;SDS011;7085;51.428;6.796;2023-04-21T03:01:09;40.03;;;25.88;;
14019;SDS011;7085;51.428;6.796;2023-04-21T03:03:36;35.30;;;25.45;;
14019;SDS011;7085;51.428;6.796;2023-04-21T03:06:04;35.75;;;25.42;;
14019;SDS011;7085;51.428;6.796;2023-04-21T03:08:31;32.55;;;23.33;;
14019;SDS011;7085;51.428;6.796;2023-04-21T03:10:58;36.25;;;24.92;;
14019;SDS011;7085;51.428;6.796;2023-04-21T03:13:26;36.45;;;24.40;;
14019;SDS011;7085;51.428;6.796;2023-04-21T03:15:53;35.22;;;23.33;;
14019;SDS011;7085;51.428;6.796;2023-04-21T03:18:22;34.83;;;23.50;;
14019;SDS011;7085;51.428;6.796;2023-04-21T03:20:49;33.25;;;21.77;;
14019;SDS011;7085;51.428;6.796;2023-04-21T03:23:17;32.50;;;22.00;;
14019;SDS011;7085;51.428;6.796;2023-04-21T03:25:44;31.42;;;22.13;;
14019;SDS011;7085;51.428;6.796;2023-04-21T03:28:11;28.98;;;21.05;;
14019;SDS011;7085;51.428;6.796;2023-04-21T03:30:38;32.83;;;21.92;;
14019;SDS011;7085;51.428;6.796;2023-04-21T03:33:05;31.25;;;20.75;;
14019;SDS011;7085;51.428;6.796;2023-04-21T03:35:33;33.17;;;21.80;;
14019;SDS011;7085;51.428;6.796;2023-04-21T03:38:00;30.88;;;21.52;;
14019;SDS011;7085;51.428;6.796;2023-04-21T03:40:27;32.97;;;21.95;;
14019;SDS011;7085;51.428;6.796;2023-04-21T03:42:54;28.80;;;20.38;;
14019;SDS011;7085;51.428;6.796;2023-04-21T03:45:21;32.33;;;20.85;;
14019;SDS011;7085;51.428;6.796;2023-04-21T03:47:51;33.33;;;22.15;;
14019;SDS011;7085;51.428;6.796;2023-04-21T03:50:19;32.67;;;20.60;;
14019;SDS011;7085;51.428;6.796;2023-04-21T03:52:47;30.40;;;21.02;;
14019;SDS011;7085;51.428;6.796;2023-04-21T03:55:14;27.40;;;20.13;;
14019;SDS011;7085;51.428;6.796;2023-04-21T03:57:41;32.70;;;21.48;;
14019;SDS011;7085;51.428;6.796;2023-04-21T04:00:09;30.88;;;21.08;;
14019;SDS011;7085;51.428;6.796;2023-04-21T04:02:36;32.17;;;22.15;;
14019;SDS011;7085;51.428;6.796;2023-04-21T04:05:04;28.30;;;20.45;;
14019;SDS011;7085;51.428;6.796;2023-04-21T04:07:31;32.13;;;20.63;;
14019;SDS011;7085;51.428;6.796;2023-04-21T04:09:59;31.95;;;20.80;;
14019;SDS011;7085;51.428;6.796;2023-04-21T04:12:26;28.42;;;20.95;;
14019;SDS011;7085;51.428;6.796;2023-04-21T04:14:53;29.52;;;19.77;;
14019;SDS011;7085;51.428;6.796;2023-04-21T04:17:20;33.47;;;20.50;;
14019;SDS011;7085;51.428;6.796;2023-04-21T04:19:48;31.50;;;19.75;;
14019;SDS011;7085;51.428;6.796;2023-04-21T04:22:15;31.15;;;18.27;;
14019;SDS011;7085;51.428;6.796;2023-04-21T04:24:42;29.92;;;20.17;;
14019;SDS011;7085;51.428;6.796;2023-04-21T04:27:11;29.48;;;19.95;;
14019;SDS011;7085;51.428;6.796;2023-04-21T04:29:39;28.70;;;18.92;;
14019;SDS011;7085;51.428;6.796;2023-04-21T04:32:06;28.48;;;17.70;;
14019;SDS011;7085;51.428;6.796;2023-04-21T04:34:34;28.50;;;19.25;;
14019;SDS011;7085;51.428;6.796;2023-04-21T04:37:02;30.83;;;21.33;;
14019;SDS011;7085;51.428;6.796;2023-04-21T04:39:30;34.70;;;21.80;;
14019;SDS011;7085;51.428;6.796;2023-04-21T04:41:57;32.10;;;21.88;;
14019;SDS011;7085;51.428;6.796;2023-04-21T04:44:26;29.75;;;20.77;;
14019;SDS011;7085;51.428;6.796;2023-04-21T04:46:53;32.83;;;21.50;;
14019;SDS011;7085;51.428;6.796;2023-04-21T04:49:20;30.23;;;19.73;;
14019;SDS011;7085;51.428;6.796;2023-04-21T04:51:48;31.38;;;21.80;;
14019;SDS011;7085;51.428;6.796;2023-04-21T04:54:15;29.75;;;20.60;;
14019;SDS011;7085;51.428;6.796;2023-04-21T04:56:42;28.63;;;21.73;;
14019;SDS011;7085;51.428;6.796;2023-04-21T04:59:09;32.05;;;20.52;;
14019;SDS011;7085;51.428;6.796;2023-04-21T05:01:37;32.10;;;21.23;;
14019;SDS011;7085;51.428;6.796;2023-04-21T05:04:05;34.08;;;21.52;;
14019;SDS011;7085;51.428;6.796;2023-04-21T05:06:33;31.83;;;20.60;;
14019;SDS011;7085;51.428;6.796;2023-04-21T05:09:00;28.73;;;20.40;;
14019;SDS011;7085;51.428;6.796;2023-04-21T05:11:28;31.40;;;20.95;;
14019;SDS011;7085;51.428;6.796;2023-04-21T05:13:55;30.08;;;19.95;;
14019;SDS011;7085;51.428;6.796;2023-04-21T05:16:22;29.67;;;20.20;;
14019;SDS011;7085;51.428;6.796;2023-04-21T05:18:51;31.23;;;20.95;;
14019;SDS011;7085;51.428;6.796;2023-04-21T05:21:21;29.45;;;21.15;;
14019;SDS011;7085;51.428;6.796;2023-04-21T05:23:48;30.80;;;20.90;;
14019;SDS011;7085;51.428;6.796;2023-04-21T05:26:16;32.60;;;22.00;;
14019;SDS011;7085;51.428;6.796;2023-04-21T05:28:43;30.10;;;20.85;;
14019;SDS011;7085;51.428;6.796;2023-04-21T05:31:10;30.88;;;20.70;;
14019;SDS011;7085;51.428;6.796;2023-04-21T05:33:37;27.70;;;20.83;;
14019;SDS011;7085;51.428;6.796;2023-04-21T05:36:07;29.05;;;20.48;;
14019;SDS011;7085;51.428;6.796;2023-04-21T05:38:34;31.13;;;19.58;;
14019;SDS011;7085;51.428;6.796;2023-04-21T05:41:01;29.08;;;20.30;;
14019;SDS011;7085;51.428;6.796;2023-04-21T05:43:28;26.50;;;19.80;;
14019;SDS011;7085;51.428;6.796;2023-04-21T05:45:57;28.20;;;20.85;;
14019;SDS011;7085;51.428;6.796;2023-04-21T05:48:24;31.55;;;20.88;;
14019;SDS011;7085;51.428;6.796;2023-04-21T05:50:52;28.13;;;20.30;;
14019;SDS011;7085;51.428;6.796;2023-04-21T05:53:21;25.70;;;18.90;;
14019;SDS011;7085;51.428;6.796;2023-04-21T05:55:48;25.25;;;19.58;;
14019;SDS011;7085;51.428;6.796;2023-04-21T05:58:15;29.60;;;20.60;;
14019;SDS011;7085;51.428;6.796;2023-04-21T06:00:42;27.95;;;19.50;;
14019;SDS011;7085;51.428;6.796;2023-04-21T06:03:10;27.50;;;20.05;;
14019;SDS011;7085;51.428;6.796;2023-04-21T06:05:37;28.02;;;19.60;;
14019;SDS011;7085;51.428;6.796;2023-04-21T06:08:04;29.45;;;19.50;;
14019;SDS011;7085;51.428;6.796;2023-04-21T06:10:32;29.48;;;19.67;;
14019;SDS011;7085;51.428;6.796;2023-04-21T06:13:00;30.02;;;19.83;;
14019;SDS011;7085;51.428;6.796;2023-04-21T06:15:27;27.52;;;20.10;;
14019;SDS011;7085;51.428;6.796;2023-04-21T06:17:54;26.35;;;20.27;;
14019;SDS011;7085;51.428;6.796;2023-04-21T06:20:21;26.48;;;18.98;;
14019;SDS011;7085;51.428;6.796;2023-04-21T06:22:48;28.55;;;20.42;;
14019;SDS011;7085;51.428;6.796;2023-04-21T06:25:15;26.27;;;19.40;;
14019;SDS011;7085;51.428;6.796;2023-04-21T06:27:44;29.08;;;19.55;;
14019;SDS011;7085;51.428;6.796;2023-04-21T06:30:12;27.25;;;21.00;;
14019;SDS011;7085;51.428;6.796;2023-04-21T06:32:39;29.63;;;19.92;;
14019;SDS011;7085;51.428;6.796;2023-04-21T06:35:06;27.38;;;19.88;;
14019;SDS011;7085;51.428;6.796;2023-04-21T06:37:33;26.90;;;19.00;;
14019;SDS011;7085;51.428;6.796;2023-04-21T06:40:00;29.02;;;19.27;;
14019;SDS011;7085;51.428;6.796;2023-04-21T06:42:27;27.85;;;20.35;;
14019;SDS011;7085;51.428;6.796;2023-04-21T06:44:56;30.85;;;20.70;;
14019;SDS011;7085;51.428;6.796;2023-04-21T06:47:23;25.75;;;19.25;;
14019;SDS011;7085;51.428;6.796;2023-04-21T06:49:50;31.50;;;19.40;;
14019;SDS011;7085;51.428;6.796;2023-04-21T06:52:17;28.85;;;21.17;;
14019;SDS011;7085;51.428;6.796;2023-04-21T06:54:44;27.95;;;20.20;;
14019;SDS011;7085;51.428;6.796;2023-04-21T06:57:11;32.03;;;21.70;;
14019;SDS011;7085;51.428;6.796;2023-04-21T06:59:39;29.42;;;20.98;;
14019;SDS011;7085;51.428;6.796;2023-04-21T07:02:07;27.30;;;18.85;;
14019;SDS011;7085;51.428;6.796;2023-04-21T07:04:34;26.88;;;19.67;;
14019;SDS011;7085;51.428;6.796;2023-04-21T07:07:01;29.02;;;19.95;;
14019;SDS011;7085;51.428;6.796;2023-04-21T07:09:29;30.70;;;21.85;;
14019;SDS011;7085;51.428;6.796;2023-04-21T07:11:57;27.52;;;19.80;;
14019;SDS011;7085;51.428;6.796;2023-04-21T07:14:24;29.85;;;20.08;;
14019;SDS011;7085;51.428;6.796;2023-04-21T07:16:51;28.42;;;20.83;;
14019;SDS011;7085;51.428;6.796;2023-04-21T07:19:22;28.83;;;19.92;;
14019;SDS011;7085;51.428;6.796;2023-04-21T07:21:49;27.20;;;20.40;;
14019;SDS011;7085;51.428;6.796;2023-04-21T07:24:16;28.02;;;20.33;;
14019;SDS011;7085;51.428;6.796;2023-04-21T07:26:44;28.42;;;21.27;;
14019;SDS011;7085;51.428;6.796;2023-04-21T07:29:11;25.23;;;19.10;;
14019;SDS011;7085;51.428;6.796;2023-04-21T07:31:38;26.77;;;19.65;;
14019;SDS011;7085;51.428;6.796;2023-04-21T07:34:05;28.42;;;19.20;;
14019;SDS011;7085;51.428;6.796;2023-04-21T07:36:33;25.65;;;18.67;;
14019;SDS011;7085;51.428;6.796;2023-04-21T07:39:02;27.00;;;18.73;;
14019;SDS011;7085;51.428;6.796;2023-04-21T07:41:29;27.35;;;18.98;;
14019;SDS011;7085;51.428;6.796;2023-04-21T07:43:56;24.73;;;18.08;;
14019;SDS011;7085;51.428;6.796;2023-04-21T07:46:23;23.65;;;18.73;;
14019;SDS011;7085;51.428;6.796;2023-04-21T07:48:54;26.65;;;19.40;;
14019;SDS011;7085;51.428;6.796;2023-04-21T07:51:21;26.15;;;20.08;;
14019;SDS011;7085;51.428;6.796;2023-04-21T07:53:50;22.70;;;18.92;;
14019;SDS011;7085;51.428;6.796;2023-04-21T07:56:17;24.42;;;18.60;;
14019;SDS011;7085;51.428;6.796;2023-04-21T07:58:44;28.00;;;17.90;;
14019;SDS011;7085;51.428;6.796;2023-04-21T08:01:11;24.85;;;18.42;;
14019;SDS011;7085;51.428;6.796;2023-04-21T08:03:38;24.45;;;18.95;;
14019;SDS011;7085;51.428;6.796;2023-04-21T08:06:06;24.75;;;18.13;;
14019;SDS011;7085;51.428;6.796;2023-04-21T08:08:33;24.40;;;18.23;;
14019;SDS011;7085;51.428;6.796;2023-04-21T08:11:01;24.13;;;18.75;;
14019;SDS011;7085;51.428;6.796;2023-04-21T08:13:28;26.50;;;18.63;;
14019;SDS011;7085;51.428;6.796;2023-04-21T08:15:55;25.90;;;19.15;;
14019;SDS011;7085;51.428;6.796;2023-04-21T08:18:22;24.20;;;19.90;;
14019;SDS011;7085;51.428;6.796;2023-04-21T08:20:49;24.20;;;18.05;;
14019;SDS011;7085;51.428;6.796;2023-04-21T08:23:17;23.67;;;17.88;;
14019;SDS011;7085;51.428;6.796;2023-04-21T08:25:44;25.77;;;17.33;;
14019;SDS011;7085;51.428;6.796;2023-04-21T08:28:13;23.23;;;17.65;;
14019;SDS011;7085;51.428;6.796;2023-04-21T08:30:40;19.98;;;16.98;;
14019;SDS011;7085;51.428;6.796;2023-04-21T08:33:07;22.60;;;17.92;;
14019;SDS011;7085;51.428;6.796;2023-04-21T08:35:37;25.23;;;18.90;;
14019;SDS011;7085;51.428;6.796;2023-04-21T08:38:05;25.02;;;17.63;;
14019;SDS011;7085;51.428;6.796;2023-04-21T08:40:34;23.10;;;17.73;;
14019;SDS011;7085;51.428;6.796;2023-04-21T08:43:02;21.95;;;17.60;;
14019;SDS011;7085;51.428;6.796;2023-04-21T08:45:31;24.13;;;17.45;;
14019;SDS011;7085;51.428;6.796;2023-04-21T08:47:58;19.80;;;16.08;;
14019;SDS011;7085;51.428;6.796;2023-04-21T08:50:27;22.90;;;17.30;;
14019;SDS011;7085;51.428;6.796;2023-04-21T08:52:54;21.15;;;17.20;;
14019;SDS011;7085;51.428;6.796;2023-04-21T08:55:22;20.42;;;16.75;;
14019;SDS011;7085;51.428;6.796;2023-04-21T08:57:51;19.65;;;14.68;;
14019;SDS011;7085;51.428;6.796;2023-04-21T09:00:18;22.52;;;15.45;;
14019;SDS011;7085;51.428;6.796;2023-04-21T09:02:53;17.65;;;14.82;;
14019;SDS011;7085;51.428;6.796;2023-04-21T09:05:21;18.95;;;15.88;;
14019;SDS011;7085;51.428;6.796;2023-04-21T09:07:48;21.13;;;16.13;;
14019;SDS011;7085;51.428;6.796;2023-04-21T09:10:20;17.30;;;14.57;;
14019;SDS011;7085;51.428;6.796;2023-04-21T09:12:49;18.63;;;14.80;;
14019;SDS011;7085;51.428;6.796;2023-04-21T09:15:16;21.92;;;15.57;;
14019;SDS011;7085;51.428;6.796;2023-04-21T09:17:44;18.13;;;15.20;;
14019;SDS011;7085;51.428;6.796;2023-04-21T09:20:17;16.90;;;15.10;;
14019;SDS011;7085;51.428;6.796;2023-04-21T09:22:44;18.00;;;14.40;;
14019;SDS011;7085;51.428;6.796;2023-04-21T09:25:14;17.00;;;15.10;;
14019;SDS011;7085;51.428;6.796;2023-04-21T09:27:42;18.02;;;13.82;;
14019;SDS011;7085;51.428;6.796;2023-04-21T09:30:09;17.50;;;14.02;;
14019;SDS011;7085;51.428;6.796;2023-04-21T09:32:37;17.23;;;13.75;;
14019;SDS011;7085;51.428;6.796;2023-04-21T09:35:05;18.38;;;13.65;;
14019;SDS011;7085;51.428;6.796;2023-04-21T09:37:33;16.73;;;13.32;;
14019;SDS011;7085;51.428;6.796;2023-04-21T09:40:01;17.20;;;13.65;;
14019;SDS011;7085;51.428;6.796;2023-04-21T09:42:28;18.38;;;13.82;;
14019;SDS011;7085;51.428;6.796;2023-04-21T09:44:56;14.63;;;12.48;;
14019;SDS011;7085;51.428;6.796;2023-04-21T09:47:24;14.85;;;13.25;;
14019;SDS011;7085;51.428;6.796;2023-04-21T09:49:54;15.48;;;12.90;;
14019;SDS011;7085;51.428;6.796;2023-04-21T09:52:21;20.33;;;13.05;;
14019;SDS011;7085;51.428;6.796;2023-04-21T09:54:51;15.57;;;12.88;;
14019;SDS011;7085;51.428;6.796;2023-04-21T09:57:23;15.45;;;13.05;;
14019;SDS011;7085;51.428;6.796;2023-04-21T09:59:53;16.90;;;12.63;;
14019;SDS011;7085;51.428;6.796;2023-04-21T10:02:23;18.67;;;12.90;;
14019;SDS011;7085;51.428;6.796;2023-04-21T10:04:51;17.55;;;13.25;;
14019;SDS011;7085;51.428;6.796;2023-04-21T10:07:18;17.02;;;12.38;;
14019;SDS011;7085;51.428;6.796;2023-04-21T10:09:46;16.05;;;12.75;;
14019;SDS011;7085;51.428;6.796;2023-04-21T10:12:16;14.93;;;13.18;;
14019;SDS011;7085;51.428;6.796;2023-04-21T10:14:43;16.52;;;12.27;;
14019;SDS011;7085;51.428;6.796;2023-04-21T10:17:10;18.63;;;13.07;;
14019;SDS011;7085;51.428;6.796;2023-04-21T10:19:46;15.38;;;13.40;;
14019;SDS011;7085;51.428;6.796;2023-04-21T10:22:14;15.60;;;12.90;;
14019;SDS011;7085;51.428;6.796;2023-04-21T10:24:41;17.25;;;13.88;;
14019;SDS011;7085;51.428;6.796;2023-04-21T10:27:08;17.92;;;13.85;;
14019;SDS011;7085;51.428;6.796;2023-04-21T10:29:37;17.25;;;15.15;;
14019;SDS011;7085;51.428;6.796;2023-04-21T10:32:05;17.02;;;14.48;;
14019;SDS011;7085;51.428;6.796;2023-04-21T10:34:35;17.42;;;14.98;;
14019;SDS011;7085;51.428;6.796;2023-04-21T10:37:10;16.13;;;14.13;;
14019;SDS011;7085;51.428;6.796;2023-04-21T10:39:43;15.85;;;14.15;;
14019;SDS011;7085;51.428;6.796;2023-04-21T10:42:19;17.92;;;13.90;;
14019;SDS011;7085;51.428;6.796;2023-04-21T10:44:51;15.90;;;13.25;;
14019;SDS011;7085;51.428;6.796;2023-04-21T10:47:24;16.60;;;14.30;;
14019;SDS011;7085;51.428;6.796;2023-04-21T10:49:52;18.90;;;15.63;;
14019;SDS011;7085;51.428;6.796;2023-04-21T10:52:19;15.50;;;13.75;;
14019;SDS011;7085;51.428;6.796;2023-04-21T10:57:30;17.65;;;13.93;;
14019;SDS011;7085;51.428;6.796;2023-04-21T10:59:59;15.55;;;13.10;;
14019;SDS011;7085;51.428;6.796;2023-04-21T11:02:26;18.35;;;15.25;;
14019;SDS011;7085;51.428;6.796;2023-04-21T11:04:53;20.92;;;14.18;;
14019;SDS011;7085;51.428;6.796;2023-04-21T11:07:20;17.83;;;15.07;;
14019;SDS011;7085;51.428;6.796;2023-04-21T11:09:55;18.30;;;14.20;;
14019;SDS011;7085;51.428;6.796;2023-04-21T11:12:25;21.88;;;14.88;;
14019;SDS011;7085;51.428;6.796;2023-04-21T11:14:52;16.15;;;13.90;;
14019;SDS011;7085;51.428;6.796;2023-04-21T11:17:20;16.88;;;12.93;;
14019;SDS011;7085;51.428;6.796;2023-04-21T11:19:48;16.30;;;14.05;;
14019;SDS011;7085;51.428;6.796;2023-04-21T11:22:16;18.10;;;14.52;;
14019;SDS011;7085;51.428;6.796;2023-04-21T11:24:43;16.77;;;13.88;;
14019;SDS011;7085;51.428;6.796;2023-04-21T11:27:10;16.10;;;13.98;;
14019;SDS011;7085;51.428;6.796;2023-04-21T11:29:38;18.83;;;15.07;;
14019;SDS011;7085;51.428;6.796;2023-04-21T11:32:05;18.17;;;14.05;;
14019;SDS011;7085;51.428;6.796;2023-04-21T11:34:35;18.30;;;14.32;;
14019;SDS011;7085;51.428;6.796;2023-04-21T11:37:02;18.58;;;13.85;;
14019;SDS011;7085;51.428;6.796;2023-04-21T11:39:30;19.23;;;14.77;;
14019;SDS011;7085;51.428;6.796;2023-04-21T11:41:58;16.17;;;14.45;;
14019;SDS011;7085;51.428;6.796;2023-04-21T11:44:30;16.60;;;13.93;;
14019;SDS011;7085;51.428;6.796;2023-04-21T11:46:57;17.52;;;14.18;;
14019;SDS011;7085;51.428;6.796;2023-04-21T11:49:24;18.85;;;14.25;;
14019;SDS011;7085;51.428;6.796;2023-04-21T11:51:54;15.93;;;13.05;;
14019;SDS011;7085;51.428;6.796;2023-04-21T11:54:22;18.40;;;13.70;;
14019;SDS011;7085;51.428;6.796;2023-04-21T11:56:49;15.05;;;13.10;;
14019;SDS011;7085;51.428;6.796;2023-04-21T11:59:17;19.10;;;13.93;;
14019;SDS011;7085;51.428;6.796;2023-04-21T12:01:47;16.38;;;13.55;;
14019;SDS011;7085;51.428;6.796;2023-04-21T12:04:15;17.50;;;12.25;;
14019;SDS011;7085;51.428;6.796;2023-04-21T12:06:42;15.90;;;13.13;;
14019;SDS011;7085;51.428;6.796;2023-04-21T12:09:16;15.38;;;12.38;;
14019;SDS011;7085;51.428;6.796;2023-04-21T12:11:45;15.95;;;12.85;;
14019;SDS011;7085;51.428;6.796;2023-04-21T12:14:13;14.88;;;12.60;;
14019;SDS011;7085;51.428;6.796;2023-04-21T12:16:41;15.80;;;12.13;;
14019;SDS011;7085;51.428;6.796;2023-04-21T12:19:08;13.95;;;12.50;;
14019;SDS011;7085;51.428;6.796;2023-04-21T12:21:36;15.10;;;12.98;;
14019;SDS011;7085;51.428;6.796;2023-04-21T12:24:03;12.75;;;11.45;;
14019;SDS011;7085;51.428;6.796;2023-04-21T12:26:31;12.80;;;11.35;;
14019;SDS011;7085;51.428;6.796;2023-04-21T12:28:59;13.77;;;11.68;;
14019;SDS011;7085;51.428;6.796;2023-04-21T12:31:26;13.50;;;10.77;;
14019;SDS011;7085;51.428;6.796;2023-04-21T12:33:53;17.92;;;12.75;;
14019;SDS011;7085;51.428;6.796;2023-04-21T12:36:21;13.65;;;11.23;;
14019;SDS011;7085;51.428;6.796;2023-04-21T12:38:48;12.23;;;10.90;;
14019;SDS011;7085;51.428;6.796;2023-04-21T12:41:15;12.55;;;11.20;;
14019;SDS011;7085;51.428;6.796;2023-04-21T12:43:43;11.88;;;10.07;;
14019;SDS011;7085;51.428;6.796;2023-04-21T12:46:11;11.52;;;10.30;;
14019;SDS011;7085;51.428;6.796;2023-04-21T12:48:38;13.30;;;10.80;;
14019;SDS011;7085;51.428;6.796;2023-04-21T12:51:05;11.93;;;9.90;;
14019;SDS011;7085;51.428;6.796;2023-04-21T12:53:32;13.25;;;11.25;;
14019;SDS011;7085;51.428;6.796;2023-04-21T12:56:00;12.63;;;10.68;;
14019;SDS011;7085;51.428;6.796;2023-04-21T12:58:27;10.73;;;9.48;;
14019;SDS011;7085;51.428;6.796;2023-04-21T13:00:56;10.35;;;9.23;;
14019;SDS011;7085;51.428;6.796;2023-04-21T13:03:23;13.73;;;9.80;;
14019;SDS011;7085;51.428;6.796;2023-04-21T13:05:50;9.75;;;8.75;;
14019;SDS011;7085;51.428;6.796;2023-04-21T13:08:17;11.35;;;8.70;;
14019;SDS011;7085;51.428;6.796;2023-04-21T13:10:44;11.23;;;10.02;;
14019;SDS011;7085;51.428;6.796;2023-04-21T13:13:11;12.27;;;9.93;;
14019;SDS011;7085;51.428;6.796;2023-04-21T13:15:38;11.05;;;9.60;;
14019;SDS011;7085;51.428;6.796;2023-04-21T13:18:07;10.80;;;9.70;;
14019;SDS011;7085;51.428;6.796;2023-04-21T13:20:34;11.57;;;9.10;;
14019;SDS011;7085;51.428;6.796;2023-04-21T13:23:01;9.68;;;8.68;;
14019;SDS011;7085;51.428;6.796;2023-04-21T13:25:28;11.73;;;8.50;;
14019;SDS011;7085;51.428;6.796;2023-04-21T13:27:55;9.88;;;8.68;;
14019;SDS011;7085;51.428;6.796;2023-04-21T13:30:22;12.25;;;9.02;;
14019;SDS011;7085;51.428;6.796;2023-04-21T13:32:49;9.20;;;8.32;;
14019;SDS011;7085;51.428;6.796;2023-04-21T13:35:18;10.25;;;8.30;;
14019;SDS011;7085;51.428;6.796;2023-04-21T13:37:45;10.40;;;8.45;;
14019;SDS011;7085;51.428;6.796;2023-04-21T13:40:13;7.85;;;7.05;;
14019;SDS011;7085;51.428;6.796;2023-04-21T13:42:40;9.52;;;8.15;;
14019;SDS011;7085;51.428;6.796;2023-04-21T13:45:07;8.68;;;7.82;;
14019;SDS011;7085;51.428;6.796;2023-04-21T13:47:35;8.63;;;7.63;;
14019;SDS011;7085;51.428;6.796;2023-04-21T13:50:02;8.52;;;7.63;;
14019;SDS011;7085;51.428;6.796;2023-04-21T13:52:30;9.05;;;7.78;;
14019;SDS011;7085;51.428;6.796;2023-04-21T13:54:58;11.15;;;8.20;;
14019;SDS011;7085;51.428;6.796;2023-04-21T13:57:26;10.05;;;8.88;;
14019;SDS011;7085;51.428;6.796;2023-04-21T13:59:53;8.88;;;7.78;;
14019;SDS011;7085;51.428;6.796;2023-04-21T14:02:20;9.75;;;8.27;;
14019;SDS011;7085;51.428;6.796;2023-04-21T14:04:48;9.82;;;7.45;;
14019;SDS011;7085;51.428;6.796;2023-04-21T14:07:15;10.15;;;8.15;;
14019;SDS011;7085;51.428;6.796;2023-04-21T14:09:44;10.43;;;8.45;;
14019;SDS011;7085;51.428;6.796;2023-04-21T14:12:11;9.80;;;7.47;;
14019;SDS011;7085;51.428;6.796;2023-04-21T14:14:39;7.68;;;6.97;;
14019;SDS011;7085;51.428;6.796;2023-04-21T14:17:06;9.00;;;8.13;;
14019;SDS011;7085;51.428;6.796;2023-04-21T14:19:33;9.32;;;7.00;;
14019;SDS011;7085;51.428;6.796;2023-04-21T14:22:00;7.82;;;7.13;;
14019;SDS011;7085;51.428;6.796;2023-04-21T14:24:27;7.85;;;6.93;;
14019;SDS011;7085;51.428;6.796;2023-04-21T14:26:57;8.52;;;7.38;;
14019;SDS011;7085;51.428;6.796;2023-04-21T14:29:25;10.13;;;7.05;;
14019;SDS011;7085;51.428;6.796;2023-04-21T14:31:52;7.35;;;6.65;;
14019;SDS011;7085;51.428;6.796;2023-04-21T14:34:21;9.07;;;7.25;;
14019;SDS011;7085;51.428;6.796;2023-04-21T14:36:48;8.60;;;7.13;;
14019;SDS011;7085;51.428;6.796;2023-04-21T14:39:15;8.10;;;7.05;;
14019;SDS011;7085;51.428;6.796;2023-04-21T14:41:43;9.50;;;7.15;;
14019;SDS011;7085;51.428;6.796;2023-04-21T14:44:11;7.40;;;6.55;;
14019;SDS011;7085;51.428;6.796;2023-04-21T14:46:38;8.30;;;6.22;;
14019;SDS011;7085;51.428;6.796;2023-04-21T14:49:05;6.93;;;6.18;;
14019;SDS011;7085;51.428;6.796;2023-04-21T14:51:32;8.48;;;5.82;;
14019;SDS011;7085;51.428;6.796;2023-04-21T14:54:00;5.93;;;5.32;;
14019;SDS011;7085;51.428;6.796;2023-04-21T14:56:27;6.47;;;5.82;;
14019;SDS011;7085;51.428;6.796;2023-04-21T14:58:54;5.90;;;5.30;;
14019;SDS011;7085;51.428;6.796;2023-04-21T15:01:23;5.45;;;4.82;;
14019;SDS011;7085;51.428;6.796;2023-04-21T15:03:50;7.90;;;5.95;;
14019;SDS011;7085;51.428;6.796;2023-04-21T15:06:17;6.00;;;5.47;;
14019;SDS011;7085;51.428;6.796;2023-04-21T15:08:44;6.60;;;5.95;;
14019;SDS011;7085;51.428;6.796;2023-04-21T15:11:11;7.07;;;5.45;;
14019;SDS011;7085;51.428;6.796;2023-04-21T15:13:39;9.07;;;6.25;;
14019;SDS011;7085;51.428;6.796;2023-04-21T15:16:06;6.32;;;5.60;;
14019;SDS011;7085;51.428;6.796;2023-04-21T15:18:34;6.03;;;5.40;;
14019;SDS011;7085;51.428;6.796;2023-04-21T15:21:01;6.75;;;6.03;;
14019;SDS011;7085;51.428;6.796;2023-04-21T15:23:28;6.55;;;5.85;;
14019;SDS011;7085;51.428;6.796;2023-04-21T15:25:57;6.97;;;5.65;;
14019;SDS011;7085;51.428;6.796;2023-04-21T15:28:24;7.18;;;5.65;;
14019;SDS011;7085;51.428;6.796;2023-04-21T15:30:51;7.88;;;5.13;;
14019;SDS011;7085;51.428;6.796;2023-04-21T15:33:19;5.60;;;5.10;;
14019;SDS011;7085;51.428;6.796;2023-04-21T15:35:47;6.28;;;5.68;;
14019;SDS011;7085;51.428;6.796;2023-04-21T15:38:14;6.05;;;5.45;;
14019;SDS011;7085;51.428;6.796;2023-04-21T15:40:41;6.72;;;5.38;;
14019;SDS011;7085;51.428;6.796;2023-04-21T15:43:08;4.28;;;3.88;;
14019;SDS011;7085;51.428;6.796;2023-04-21T15:45:35;4.47;;;4.07;;
14019;SDS011;7085;51.428;6.796;2023-04-21T15:48:02;5.80;;;4.70;;
14019;SDS011;7085;51.428;6.796;2023-04-21T15:50:30;4.32;;;3.90;;
14019;SDS011;7085;51.428;6.796;2023-04-21T15:52:58;4.82;;;3.95;;
14019;SDS011;7085;51.428;6.796;2023-04-21T15:55:25;5.53;;;4.15;;
14019;SDS011;7085;51.428;6.796;2023-04-21T15:57:53;3.88;;;3.58;;
14019;SDS011;7085;51.428;6.796;2023-04-21T16:00:20;4.28;;;3.88;;
14019;SDS011;7085;51.428;6.796;2023-04-21T16:02:47;3.85;;;3.55;;
14019;SDS011;7085;51.428;6.796;2023-04-21T16:05:14;4.18;;;3.80;;
14019;SDS011;7085;51.428;6.796;2023-04-21T16:07:42;6.32;;;3.97;;
14019;SDS011;7085;51.428;6.796;2023-04-21T16:10:11;4.70;;;4.30;;
14019;SDS011;7085;51.428;6.796;2023-04-21T16:12:38;4.43;;;3.35;;
14019;SDS011;7085;51.428;6.796;2023-04-21T16:15:06;4.22;;;3.83;;
14019;SDS011;7085;51.428;6.796;2023-04-21T16:17:33;3.95;;;3.55;;
14019;SDS011;7085;51.428;6.796;2023-04-21T16:20:01;4.07;;;3.45;;
14019;SDS011;7085;51.428;6.796;2023-04-21T16:22:29;4.25;;;3.88;;
14019;SDS011;7085;51.428;6.796;2023-04-21T16:24:57;5.20;;;3.97;;
14019;SDS011;7085;51.428;6.796;2023-04-21T16:27:25;3.95;;;3.55;;
14019;SDS011;7085;51.428;6.796;2023-04-21T16:29:52;4.15;;;3.75;;
14019;SDS011;7085;51.428;6.796;2023-04-21T16:32:19;4.43;;;4.03;;
14019;SDS011;7085;51.428;6.796;2023-04-21T16:34:46;4.95;;;3.67;;
14019;SDS011;7085;51.428;6.796;2023-04-21T16:37:14;4.68;;;4.00;;
14019;SDS011;7085;51.428;6.796;2023-04-21T16:39:41;4.13;;;3.72;;
14019;SDS011;7085;51.428;6.796;2023-04-21T16:42:08;3.97;;;3.58;;
14019;SDS011;7085;51.428;6.796;2023-04-21T16:47:40;5.28;;;3.72;;
14019;SDS011;7085;51.428;6.796;2023-04-21T16:50:07;3.65;;;3.35;;
14019;SDS011;7085;51.428;6.796;2023-04-21T16:52:34;5.28;;;3.42;;
14019;SDS011;7085;51.428;6.796;2023-04-21T16:55:01;3.42;;;3.13;;
14019;SDS011;7085;51.428;6.796;2023-04-21T16:57:28;4.25;;;3.95;;
14019;SDS011;7085;51.428;6.796;2023-04-21T16:59:55;4.18;;;3.50;;
14019;SDS011;7085;51.428;6.796;2023-04-21T17:02:23;4.60;;;4.20;;
14019;SDS011;7085;51.428;6.796;2023-04-21T17:04:51;3.67;;;3.03;;
14019;SDS011;7085;51.428;6.796;2023-04-21T17:07:19;7.60;;;4.05;;
14019;SDS011;7085;51.428;6.796;2023-04-21T17:09:46;5.70;;;3.58;;
14019;SDS011;7085;51.428;6.796;2023-04-21T17:12:14;5.43;;;4.63;;
14019;SDS011;7085;51.428;6.796;2023-04-21T17:14:41;4.68;;;3.70;;
14019;SDS011;7085;51.428;6.796;2023-04-21T17:17:08;7.30;;;3.33;;
14019;SDS011;7085;51.428;6.796;2023-04-21T17:19:35;3.90;;;3.50;;
14019;SDS011;7085;51.428;6.796;2023-04-21T17:22:05;3.40;;;3.10;;
14019;SDS011;7085;51.428;6.796;2023-04-21T17:24:32;4.00;;;3.60;;
14019;SDS011;7085;51.428;6.796;2023-04-21T17:26:59;9.07;;;4.00;;
14019;SDS011;7085;51.428;6.796;2023-04-21T17:29:27;3.67;;;3.30;;
14019;SDS011;7085;51.428;6.796;2023-04-21T17:31:54;3.03;;;2.72;;
14019;SDS011;7085;51.428;6.796;2023-04-21T17:34:21;3.05;;;2.75;;
14019;SDS011;7085;51.428;6.796;2023-04-21T17:36:48;3.45;;;2.88;;
14019;SDS011;7085;51.428;6.796;2023-04-21T17:39:17;4.05;;;2.55;;
14019;SDS011;7085;51.428;6.796;2023-04-21T17:41:44;4.28;;;2.10;;
14019;SDS011;7085;51.428;6.796;2023-04-21T17:44:12;7.32;;;2.63;;
14019;SDS011;7085;51.428;6.796;2023-04-21T17:46:39;2.30;;;2.00;;
14019;SDS011;7085;51.428;6.796;2023-04-21T17:49:07;4.05;;;2.80;;
14019;SDS011;7085;51.428;6.796;2023-04-21T17:51:34;5.97;;;2.20;;